Time;durP1;ratioP1;P1;durP2;ratioP2;P2;SDS_P1;SDS_P2;PMS_P1;PMS_P2;Temp;Humidity;BMP_temperature;BMP_pressure;BME280_temperature;BME280_humidity;BME280_pressure;Samples;Min_cycle;Max_cycle;Signal;HPM_P1;HPM_P2
2022/07/04 00:01:29;;;;;;;6.87;6.17;;;;;;;23.58;66.55;95121.91;5058231;28;20444;-83
2022/07/04 00:03:56;;;;;;;8.00;6.23;;;;;;;23.61;67.23;95115.31;5096057;28;20471;-81
2022/07/04 00:06:23;;;;;;;10.73;6.63;;;;;;;23.69;66.09;95115.91;5096085;28;20479;-84
2022/07/04 00:08:49;;;;;;;6.40;5.83;;;;;;;23.76;66.28;95115.94;5096366;28;20475;-83
2022/07/04 00:11:16;;;;;;;6.67;6.17;;;;;;;23.82;66.15;95114.28;5096330;28;20998;-83
2022/07/04 00:13:43;;;;;;;6.97;5.97;;;;;;;23.85;66.47;95109.34;5096056;28;20445;-83
2022/07/04 00:16:10;;;;;;;7.60;6.73;;;;;;;23.90;66.44;95109.53;5095845;28;20819;-83
2022/07/04 00:18:39;;;;;;;7.13;6.43;;;;;;;23.95;66.10;95114.28;5095731;28;21001;-83
2022/07/04 00:21:06;;;;;;;6.33;5.83;;;;;;;23.94;65.73;95110.75;5077279;28;20852;-84
2022/07/04 00:23:33;;;;;;;6.37;5.87;;;;;;;23.93;63.34;95114.47;5096170;28;20458;-84
2022/07/04 00:26:00;;;;;;;6.10;5.37;;;;;;;23.89;63.25;95115.94;5095461;28;20482;-84
2022/07/04 00:28:27;;;;;;;7.90;5.50;;;;;;;23.90;63.35;95114.91;5077049;28;20450;-84
2022/07/04 00:30:54;;;;;;;8.40;5.67;;;;;;;23.86;63.78;95116.34;5095610;28;20812;-81
2022/07/04 00:33:21;;;;;;;5.70;5.20;;;;;;;23.68;62.88;95118.81;5095495;28;20443;-82
2022/07/04 00:35:49;;;;;;;5.93;5.40;;;;;;;23.60;63.01;95101.06;5095306;28;20936;-83
2022/07/04 00:38:16;;;;;;;5.23;4.83;;;;;;;23.52;62.75;95105.78;5095442;28;20446;-80
2022/07/04 00:40:43;;;;;;;7.27;6.00;;;;;;;23.54;63.95;95101.06;5095635;28;20441;-83
2022/07/04 00:43:09;;;;;;;8.90;5.90;;;;;;;23.45;63.15;95103.94;5095247;28;20958;-84
2022/07/04 00:45:36;;;;;;;5.53;5.03;;;;;;;23.40;62.83;95098.34;5095329;28;20507;-83
2022/07/04 00:48:03;;;;;;;6.13;5.53;;;;;;;23.31;64.14;95094.22;5095459;28;20440;-83
2022/07/04 00:50:30;;;;;;;7.00;6.27;;;;;;;23.14;63.92;95096.47;5095159;28;20935;-83
2022/07/04 00:52:59;;;;;;;7.50;5.47;;;;;;;23.05;62.50;95100.31;5095312;28;20454;-83
2022/07/04 00:55:26;;;;;;;12.37;5.83;;;;;;;23.07;63.31;95102.81;5094969;28;20440;-82
2022/07/04 00:57:53;;;;;;;8.07;4.63;;;;;;;23.06;62.95;95103.84;5095186;28;20816;-84
2022/07/04 01:00:21;;;;;;;10.80;5.33;;;;;;;22.90;63.58;95094.34;5095185;28;20805;-81
2022/07/04 01:02:48;;;;;;;7.00;6.27;;;;;;;23.01;63.53;95100.94;5095234;28;20531;-83
2022/07/04 01:05:16;;;;;;;6.10;5.60;;;;;;;23.07;63.99;95097.44;5095001;28;20846;-81
2022/07/04 01:07:43;;;;;;;6.47;5.87;;;;;;;23.01;63.63;95096.41;5095042;28;20483;-83
2022/07/04 01:10:12;;;;;;;6.00;5.07;;;;;;;22.91;62.96;95093.31;5095355;28;20976;-83
2022/07/04 01:12:39;;;;;;;6.10;5.50;;;;;;;22.96;63.25;95092.69;5094546;28;20459;-83
2022/07/04 01:15:08;;;;;;;6.73;5.73;;;;;;;22.85;63.23;95097.63;5094688;28;20518;-84
2022/07/04 01:17:35;;;;;;;7.60;5.50;;;;;;;22.97;63.50;95091.66;5076175;28;20448;-82
2022/07/04 01:20:02;;;;;;;5.57;5.10;;;;;;;23.04;63.54;95089.81;5094917;28;20451;-84
2022/07/04 01:22:30;;;;;;;6.00;5.50;;;;;;;22.84;63.45;95085.25;5095177;28;20798;-83
2022/07/04 01:24:57;;;;;;;5.63;5.03;;;;;;;22.69;61.85;95089.88;5094938;28;20473;-82
2022/07/04 01:27:24;;;;;;;6.83;5.60;;;;;;;22.77;63.90;95087.03;5094648;28;20457;-83
2022/07/04 01:29:51;;;;;;;5.13;4.70;;;;;;;22.76;63.05;95095.25;5094824;28;20546;-81
2022/07/04 01:32:18;;;;;;;5.70;5.07;;;;;;;22.73;63.53;95093.81;5094796;28;20440;-83
2022/07/04 01:34:45;;;;;;;7.33;5.93;;;;;;;22.82;64.21;95097.16;5094912;28;20439;-83
2022/07/04 01:37:12;;;;;;;7.93;5.73;;;;;;;22.90;64.17;95086.31;5075738;28;20456;-83
2022/07/04 01:39:40;;;;;;;6.00;5.40;;;;;;;23.01;63.89;95088.38;5094117;28;20807;-83
2022/07/04 01:42:07;;;;;;;7.00;5.33;;;;;;;23.06;64.56;95085.09;5058678;28;20438;-82
2022/07/04 01:44:35;;;;;;;9.50;5.37;;;;;;;23.08;63.70;95086.53;5094290;28;20946;-82
2022/07/04 01:47:02;;;;;;;7.90;5.37;;;;;;;23.09;62.43;95090.03;5094283;28;20850;-80
2022/07/04 01:49:29;;;;;;;8.30;5.23;;;;;;;22.95;63.34;95086.50;5094325;28;20802;-83
2022/07/04 01:51:56;;;;;;;6.10;5.30;;;;;;;22.83;63.62;95094.28;5094215;28;20469;-86
2022/07/04 01:54:24;;;;;;;10.60;5.53;;;;;;;22.84;64.47;95089.75;5093822;28;20446;-83
2022/07/04 01:56:53;;;;;;;6.90;5.03;;;;;;;22.82;63.38;95094.47;5094241;28;20452;-82
2022/07/04 02:01:29;;;;;;;5.37;4.83;;;;;;;22.77;62.70;95088.88;5093933;28;20448;-82
2022/07/04 02:02:06;;;;;;;6.80;5.07;;;;;;;22.75;63.14;95097.13;5093930;28;20440;-83
2022/07/04 02:04:33;;;;;;;5.67;5.17;;;;;;;22.74;63.42;95100.81;5093896;28;20436;-81
2022/07/04 02:07:01;;;;;;;5.23;4.73;;;;;;;22.59;63.00;95094.78;5093375;28;20491;-81
2022/07/04 02:09:28;;;;;;;5.57;4.97;;;;;;;22.52;62.68;95086.72;5093595;28;21035;-82
2022/07/04 02:14:42;;;;;;;11.20;5.67;;;;;;;22.14;64.93;95093.50;5093663;28;20940;-82
2022/07/04 02:17:09;;;;;;;9.17;5.80;;;;;;;22.06;66.65;95091.00;5075299;28;20947;-82
2022/07/04 02:19:36;;;;;;;6.07;5.50;;;;;;;22.04;68.34;95093.03;5093553;28;20443;-83
2022/07/04 02:22:03;;;;;;;6.13;5.53;;;;;;;22.01;67.48;95102.25;5093483;28;20445;-82
2022/07/04 02:24:30;;;;;;;5.27;4.87;;;;;;;22.02;67.34;95103.06;5093049;28;20965;-80
2022/07/04 02:26:58;;;;;;;6.93;6.13;;;;;;;22.00;67.29;95100.59;5093603;28;20484;-83
2022/07/04 02:29:25;;;;;;;6.57;5.90;;;;;;;22.00;66.89;95111.28;5093477;28;20526;-82
2022/07/04 02:31:52;;;;;;;6.00;5.50;;;;;;;21.94;67.50;95106.69;5093306;28;20452;-82
2022/07/04 02:34:19;;;;;;;5.50;5.00;;;;;;;22.01;67.46;95102.25;5093676;28;20452;-82
2022/07/04 02:36:46;;;;;;;6.17;5.57;;;;;;;22.04;67.06;95103.72;5093373;28;20451;-82
2022/07/04 02:39:13;;;;;;;7.10;5.77;;;;;;;22.09;66.26;95098.63;5093251;28;20451;-83
2022/07/04 02:41:41;;;;;;;6.97;5.50;;;;;;;22.13;67.21;95102.56;5093401;28;20535;-82
2022/07/04 02:44:09;;;;;;;6.47;5.87;;;;;;;22.20;68.40;95098.88;5093116;28;20436;-83
2022/07/04 02:46:36;;;;;;;11.07;6.20;;;;;;;22.22;69.36;95106.72;5093156;28;20990;-82
2022/07/04 02:49:04;;;;;;;6.57;6.07;;;;;;;22.21;69.61;95099.72;5093285;28;20814;-83
2022/07/04 02:51:31;;;;;;;7.57;5.90;;;;;;;22.26;70.08;95107.97;5093232;28;20440;-82
2022/07/04 02:53:58;;;;;;;6.27;5.50;;;;;;;22.29;69.87;95114.78;5093064;28;20447;-83
2022/07/04 02:56:25;;;;;;;13.20;5.67;;;;;;;22.32;69.17;95107.19;5074391;28;20807;-81
2022/07/04 02:58:52;;;;;;;8.47;6.03;;;;;;;22.36;67.92;95107.63;5093052;28;20519;-79
2022/07/04 03:01:20;;;;;;;13.33;6.03;;;;;;;22.43;67.86;95108.47;5092860;28;20810;-82
2022/07/04 03:03:48;;;;;;;10.13;5.67;;;;;;;22.47;67.60;95107.88;5092662;28;20939;-83
2022/07/04 03:06:15;;;;;;;5.63;4.97;;;;;;;22.52;67.36;95115.31;5092980;28;20480;-83
2022/07/04 03:08:42;;;;;;;10.60;6.20;;;;;;;22.55;65.44;95121.13;5092800;28;20494;-83
2022/07/04 03:11:09;;;;;;;5.50;4.90;;;;;;;22.57;64.55;95120.91;5093160;28;20451;-82
2022/07/04 03:13:36;;;;;;;5.40;4.90;;;;;;;22.57;63.64;95128.94;5092786;28;20515;-82
2022/07/04 03:16:03;;;;;;;8.50;4.80;;;;;;;22.58;63.77;95127.91;5092631;28;20445;-82
2022/07/04 03:18:32;;;;;;;9.57;5.27;;;;;;;22.53;63.43;95119.63;5093115;28;20448;-82
2022/07/04 03:20:58;;;;;;;10.23;5.80;;;;;;;22.57;63.81;95126.28;5092671;28;20459;-82
2022/07/04 03:23:25;;;;;;;8.33;4.90;;;;;;;22.58;63.92;95127.09;5092963;28;20452;-82
2022/07/04 03:25:52;;;;;;;6.43;5.80;;;;;;;22.56;64.11;95130.78;5092483;28;20490;-82
2022/07/04 03:28:19;;;;;;;11.63;5.03;;;;;;;22.56;63.39;95122.78;5092511;28;20451;-82
2022/07/04 03:30:46;;;;;;;8.07;4.87;;;;;;;22.61;63.45;95129.38;5092744;28;20440;-82
2022/07/04 03:33:13;;;;;;;5.57;5.07;;;;;;;22.69;64.02;95139.91;5092998;28;20441;-83
2022/07/04 03:35:41;;;;;;;13.87;5.57;;;;;;;22.71;63.75;95121.78;5094586;28;20814;-84
2022/07/04 03:38:08;;;;;;;7.53;5.00;;;;;;;22.76;63.87;95128.19;5096511;28;20480;-84
2022/07/04 03:40:35;;;;;;;6.00;5.40;;;;;;;22.93;62.76;95127.91;5096354;28;20444;-83
2022/07/04 03:43:03;;;;;;;5.77;5.07;;;;;;;23.13;61.56;95128.75;5096832;28;20448;-83
2022/07/04 03:45:30;;;;;;;5.70;4.83;;;;;;;23.38;61.54;95121.81;5096628;28;20445;-83
2022/07/04 03:47:57;;;;;;;13.63;4.93;;;;;;;23.62;60.55;95127.66;5096615;28;20478;-83
2022/07/04 03:50:24;;;;;;;5.00;4.20;;;;;;;23.85;58.64;95117.38;5061050;28;20997;-83
2022/07/04 03:52:52;;;;;;;6.33;4.60;;;;;;;24.22;58.20;95129.31;5096366;28;20437;-83
2022/07/04 03:55:19;;;;;;;6.20;4.50;;;;;;;24.47;57.00;95126.81;5096235;28;20449;-83
2022/07/04 03:57:46;;;;;;;5.63;4.63;;;;;;;24.74;55.35;95116.84;5096008;28;20456;-83
2022/07/04 04:00:14;;;;;;;4.50;4.20;;;;;;;24.90;54.45;95123.59;5096332;28;20447;-82
2022/07/04 04:02:41;;;;;;;5.70;5.20;;;;;;;25.04;53.21;95119.00;5096204;28;20849;-82
2022/07/04 04:07:55;;;;;;;9.43;5.00;;;;;;;25.21;52.01;95123.69;5096101;28;20501;-84
2022/07/04 04:10:22;;;;;;;8.33;4.47;;;;;;;25.39;51.96;95122.94;5096357;28;20454;-79
2022/07/04 04:12:49;;;;;;;5.43;4.37;;;;;;;25.43;51.08;95117.97;5096496;28;20447;-83
2022/07/04 04:15:15;;;;;;;4.63;4.30;;;;;;;25.59;51.53;95112.09;5096154;28;20454;-81
2022/07/04 04:17:42;;;;;;;6.20;4.50;;;;;;;25.73;50.91;95120.91;5095675;28;20483;-82
2022/07/04 04:20:09;;;;;;;8.53;5.50;;;;;;;25.94;50.24;95109.78;5095636;28;20443;-81
2022/07/04 04:22:37;;;;;;;7.57;5.03;;;;;;;26.24;50.13;95116.13;5096126;28;20444;-86
2022/07/04 04:25:07;;;;;;;6.80;4.93;;;;;;;26.57;49.40;95119.56;5095911;28;20452;-83
2022/07/04 04:27:34;;;;;;;5.80;4.73;;;;;;;26.83;48.72;95124.66;5060516;28;20571;-82
2022/07/04 04:30:01;;;;;;;5.30;4.70;;;;;;;27.14;47.49;95121.81;5095772;28;20451;-80
2022/07/04 04:32:27;;;;;;;9.73;5.03;;;;;;;27.47;47.14;95134.03;5096226;28;20449;-83
2022/07/04 04:34:54;;;;;;;5.57;5.07;;;;;;;27.48;46.76;95132.97;5095515;28;20461;-82
2022/07/04 04:37:21;;;;;;;9.63;5.00;;;;;;;27.59;47.95;95128.66;5095632;28;20438;-83
2022/07/04 04:39:48;;;;;;;7.83;4.57;;;;;;;27.66;47.13;95138.34;5095470;28;20454;-83
2022/07/04 04:42:17;;;;;;;8.50;5.00;;;;;;;27.63;47.97;95140.66;5095582;28;20439;-85
2022/07/04 04:44:44;;;;;;;7.53;4.97;;;;;;;27.65;49.01;95141.25;5095084;28;20942;-83
2022/07/04 04:47:11;;;;;;;13.23;7.10;;;;;;;27.89;49.57;95147.53;5094906;28;20482;-83
2022/07/04 04:49:37;;;;;;;10.33;5.20;;;;;;;28.15;49.44;95149.81;5095148;28;20447;-83
2022/07/04 04:52:05;;;;;;;7.07;5.70;;;;;;;28.40;47.61;95146.13;5095364;28;20815;-83
2022/07/04 04:54:33;;;;;;;7.17;5.00;;;;;;;28.67;47.13;95141.88;5095270;28;20447;-84
2022/07/04 04:57:00;;;;;;;5.07;4.50;;;;;;;28.94;43.16;95136.84;5095212;28;20478;-84
2022/07/04 04:59:29;;;;;;;6.50;4.40;;;;;;;29.12;41.48;95135.84;5095669;28;20871;-83
2022/07/04 05:01:56;;;;;;;10.00;5.37;;;;;;;29.33;41.51;95129.78;5094652;28;20487;-83
2022/07/04 05:04:23;;;;;;;5.70;3.93;;;;;;;29.47;41.01;95130.31;5059327;28;20814;-83
2022/07/04 05:06:50;;;;;;;5.10;3.70;;;;;;;29.66;40.54;95144.47;5059336;28;20507;-83
2022/07/04 05:09:17;;;;;;;5.20;4.70;;;;;;;29.84;41.73;95137.00;5094472;28;20472;-84
2022/07/04 05:11:44;;;;;;;5.40;4.87;;;;;;;30.00;41.60;95135.34;5094729;28;20440;-83
2022/07/04 05:14:11;;;;;;;7.03;5.10;;;;;;;30.08;41.93;95136.88;5094680;28;20448;-83
2022/07/04 05:16:39;;;;;;;7.07;5.40;;;;;;;30.13;41.83;95132.38;5094881;28;20441;-84
2022/07/04 05:19:06;;;;;;;5.60;5.10;;;;;;;30.14;42.31;95128.59;5094651;28;20443;-83
2022/07/04 05:21:33;;;;;;;6.03;5.10;;;;;;;30.10;41.82;95124.75;5094808;28;20432;-83
2022/07/04 05:23:59;;;;;;;6.47;4.57;;;;;;;30.15;42.06;95126.72;5094515;28;20441;-83
2022/07/04 05:26:27;;;;;;;16.20;5.20;;;;;;;30.14;41.73;95119.66;5058834;28;20460;-83
2022/07/04 05:28:55;;;;;;;5.53;4.93;;;;;;;30.30;42.10;95123.41;5094241;28;20939;-83
2022/07/04 05:31:24;;;;;;;23.60;6.00;;;;;;;30.46;41.94;95128.81;5094367;28;20439;-85
2022/07/04 05:33:52;;;;;;;14.50;4.67;;;;;;;30.64;42.09;95127.75;5094399;28;20452;-82
2022/07/04 05:36:20;;;;;;;7.63;5.30;;;;;;;30.82;41.79;95127.47;5094148;28;20447;-84
2022/07/04 05:38:47;;;;;;;7.57;5.40;;;;;;;30.85;41.52;95128.84;5094364;28;20511;-84
2022/07/04 05:41:14;;;;;;;6.77;4.87;;;;;;;30.94;40.86;95134.66;5075404;28;20447;-84
2022/07/04 05:43:41;;;;;;;7.40;5.70;;;;;;;31.00;41.13;95133.66;5093905;28;20448;-86
2022/07/04 05:46:08;;;;;;;6.83;6.20;;;;;;;31.10;41.17;95131.06;5094574;28;20458;-83
2022/07/04 05:48:35;;;;;;;5.23;4.83;;;;;;;31.28;40.69;95129.97;5094450;28;20482;-90
2022/07/04 05:51:03;;;;;;;8.70;4.73;;;;;;;31.48;41.07;95127.47;5098366;28;20441;-91
2022/07/04 05:53:31;;;;;;;4.97;4.40;;;;;;;31.73;40.68;95126.97;5098581;28;20567;-91
2022/07/04 05:55:58;;;;;;;9.07;6.07;;;;;;;31.85;40.61;95134.97;5097255;28;20447;-84
2022/07/04 05:58:25;;;;;;;8.53;4.30;;;;;;;31.93;40.42;95137.19;5093986;28;20455;-85
2022/07/04 06:00:52;;;;;;;9.27;5.07;;;;;;;32.01;39.14;95132.13;5094223;28;20440;-86
2022/07/04 06:03:19;;;;;;;10.70;4.87;;;;;;;32.10;39.31;95131.66;5094134;28;20450;-84
2022/07/04 06:05:46;;;;;;;24.73;8.10;;;;;;;32.17;40.26;95134.97;5093604;28;20447;-82
2022/07/04 06:08:14;;;;;;;14.10;6.90;;;;;;;32.05;40.05;95135.13;5094799;28;20822;-85
2022/07/04 06:10:41;;;;;;;9.80;4.97;;;;;;;31.91;38.96;95133.94;5094401;28;20448;-84
2022/07/04 06:13:08;;;;;;;5.53;5.10;;;;;;;31.75;38.96;95135.66;5093770;28;20445;-83
2022/07/04 06:15:35;;;;;;;7.07;5.33;;;;;;;31.70;38.69;95138.28;5093469;28;20451;-83
2022/07/04 06:18:02;;;;;;;7.17;5.90;;;;;;;31.59;40.16;95125.72;5093826;28;20526;-82
2022/07/04 06:20:53;;;;;;;7.93;5.43;;;;;;;31.46;40.60;95131.53;5094350;28;20489;-84
2022/07/04 06:23:21;;;;;;;5.30;4.80;;;;;;;31.48;41.16;95129.38;5093965;28;20443;-85
2022/07/04 06:25:48;;;;;;;5.17;4.60;;;;;;;31.38;40.93;95133.63;5058745;28;20436;-84
2022/07/04 06:28:15;;;;;;;11.30;6.13;;;;;;;31.53;40.43;95132.16;5093851;28;20468;-85
2022/07/04 06:30:42;;;;;;;6.77;5.03;;;;;;;31.63;40.50;95129.53;5097378;28;20458;-83
2022/07/04 06:33:09;;;;;;;6.20;5.70;;;;;;;31.69;40.87;95131.22;5094437;28;20451;-82
2022/07/04 06:35:51;;;;;;;5.97;5.13;;;;;;;31.73;40.95;95130.50;5094457;28;20427;-85
2022/07/04 06:38:19;;;;;;;9.50;5.97;;;;;;;31.87;40.28;95128.19;5094159;28;20431;-85
2022/07/04 06:40:49;;;;;;;6.70;5.47;;;;;;;32.12;41.06;95126.78;5092852;28;20439;-85
2022/07/04 06:43:17;;;;;;;6.20;5.47;;;;;;;32.32;40.60;95132.41;5092567;28;20490;-85
2022/07/04 06:45:44;;;;;;;8.03;5.13;;;;;;;32.42;39.69;95126.25;5092893;28;20451;-86
2022/07/04 06:48:10;;;;;;;6.60;6.00;;;;;;;32.32;39.26;95130.50;5056737;28;20475;-81
2022/07/04 06:50:37;;;;;;;7.83;5.13;;;;;;;32.40;39.36;95121.06;5093124;28;20452;-84
2022/07/04 06:53:06;;;;;;;7.47;5.40;;;;;;;32.59;39.03;95124.97;5092497;28;20440;-80
2022/07/04 06:55:33;;;;;;;9.30;5.60;;;;;;;32.54;39.36;95122.25;5092541;28;20450;-84
2022/07/04 06:58:02;;;;;;;6.47;5.83;;;;;;;32.52;39.26;95120.88;5092508;28;20475;-84
2022/07/04 07:00:30;;;;;;;6.23;5.63;;;;;;;32.52;39.09;95121.69;5093045;28;20451;-86
2022/07/04 07:02:57;;;;;;;7.60;6.57;;;;;;;32.40;39.93;95112.91;5092490;28;20524;-81
2022/07/04 07:05:25;;;;;;;5.67;5.13;;;;;;;32.41;39.38;95106.41;5057267;28;20821;-81
2022/07/04 07:07:51;;;;;;;6.60;4.80;;;;;;;32.49;39.73;95107.81;5073034;28;21005;-85
2022/07/04 07:10:18;;;;;;;10.77;6.30;;;;;;;32.46;39.69;95105.63;5092422;28;20438;-84
2022/07/04 07:12:45;;;;;;;8.33;5.93;;;;;;;32.39;39.36;95108.56;5092384;28;20443;-85
2022/07/04 07:15:14;;;;;;;6.47;5.87;;;;;;;32.48;39.90;95112.41;5092159;28;20448;-80
2022/07/04 07:17:41;;;;;;;13.27;6.00;;;;;;;32.59;41.12;95105.97;5092729;28;20887;-82
2022/07/04 07:20:09;;;;;;;14.43;5.60;;;;;;;32.79;39.36;95105.31;5092196;28;20444;-84
2022/07/04 07:22:36;;;;;;;5.40;4.90;;;;;;;32.45;37.98;95096.66;5073333;28;20451;-84
2022/07/04 07:25:03;;;;;;;6.30;4.50;;;;;;;32.14;38.43;95101.00;5092325;28;20934;-79
2022/07/04 07:27:30;;;;;;;8.57;6.13;;;;;;;32.17;39.06;95102.38;5092311;28;20483;-84
2022/07/04 07:29:57;;;;;;;29.10;7.30;;;;;;;32.15;38.39;95097.22;5092017;28;20439;-81
2022/07/04 07:32:25;;;;;;;9.60;5.23;;;;;;;32.19;38.89;95100.22;5056700;28;20528;-84
2022/07/04 07:34:52;;;;;;;9.70;5.00;;;;;;;32.33;37.70;95093.28;5092342;28;20519;-81
2022/07/04 07:37:21;;;;;;;10.23;5.90;;;;;;;32.44;38.90;95095.00;5092447;28;20452;-85
2022/07/04 07:39:48;;;;;;;6.53;5.70;;;;;;;32.69;37.85;95088.09;5092265;28;20475;-85
2022/07/04 07:42:15;;;;;;;7.17;5.60;;;;;;;32.89;38.10;95080.06;5056850;28;20444;-84
2022/07/04 07:44:45;;;;;;;11.63;6.30;;;;;;;33.13;38.46;95092.13;5091884;28;20428;-84
2022/07/04 07:47:12;;;;;;;5.83;5.40;;;;;;;33.16;37.39;95079.91;5091790;28;20459;-80
2022/07/04 07:49:40;;;;;;;9.37;6.53;;;;;;;33.11;37.94;95090.75;5092122;28;20448;-81
2022/07/04 07:52:08;;;;;;;10.13;5.50;;;;;;;33.19;39.69;95085.63;5056560;28;20444;-85
2022/07/04 07:54:35;;;;;;;7.63;5.73;;;;;;;33.24;38.79;95088.34;5092163;28;20780;-85
2022/07/04 07:57:01;;;;;;;13.80;6.17;;;;;;;32.99;38.66;95080.13;5091718;28;20934;-80
2022/07/04 07:59:28;;;;;;;11.10;6.10;;;;;;;32.82;38.67;95085.75;5091913;28;20447;-84
2022/07/04 08:01:55;;;;;;;9.37;5.73;;;;;;;32.78;40.34;95081.88;5091700;28;20969;-83
2022/07/04 08:04:37;;;;;;;7.37;6.03;;;;;;;32.45;39.86;95082.25;5091978;28;20452;-83
2022/07/04 08:07:07;;;;;;;11.13;6.00;;;;;;;32.18;41.27;95079.56;5091851;28;20466;-83
2022/07/04 08:09:35;;;;;;;9.83;6.77;;;;;;;32.04;40.26;95076.47;5091584;28;20474;-83
2022/07/04 08:12:04;;;;;;;6.93;6.10;;;;;;;31.33;41.81;95079.31;5091590;28;20443;-84
2022/07/04 08:14:32;;;;;;;10.33;6.27;;;;;;;31.42;43.79;95071.53;5091698;28;20443;-85
2022/07/04 08:16:59;;;;;;;10.90;6.50;;;;;;;31.52;42.90;95071.66;5055983;28;20443;-83
2022/07/04 08:19:26;;;;;;;6.40;5.90;;;;;;;31.09;43.28;95075.22;5091801;28;20435;-84
2022/07/04 08:21:54;;;;;;;11.80;6.60;;;;;;;31.12;42.61;95075.53;5091967;28;20439;-84
2022/07/04 08:24:23;;;;;;;14.00;6.80;;;;;;;31.33;42.03;95079.31;5095232;28;20443;-84
2022/07/04 08:26:50;;;;;;;11.10;7.50;;;;;;;31.51;41.72;95072.69;5095168;28;20452;-83
2022/07/04 08:29:17;;;;;;;24.47;8.40;;;;;;;31.69;41.76;95077.78;5095273;28;20475;-84
2022/07/04 08:31:44;;;;;;;10.77;6.43;;;;;;;31.84;42.25;95069.00;5095133;28;20493;-83
2022/07/04 08:34:11;;;;;;;6.83;6.23;;;;;;;32.07;43.18;95066.97;5059654;28;20539;-84
2022/07/04 08:36:38;;;;;;;13.10;7.13;;;;;;;32.11;42.93;95063.50;5094941;28;20456;-83
2022/07/04 08:39:05;;;;;;;8.87;6.40;;;;;;;32.19;41.29;95060.31;5095359;28;20785;-85
2022/07/04 08:41:38;;;;;;;7.10;6.50;;;;;;;32.33;41.44;95068.84;5095216;28;20444;-82
2022/07/04 08:44:08;;;;;;;7.10;6.50;;;;;;;32.28;41.74;95066.09;5095036;28;20431;-84
2022/07/04 08:46:37;;;;;;;8.30;6.53;;;;;;;32.23;42.36;95066.84;5095057;28;20516;-83
2022/07/04 08:49:11;;;;;;;12.90;6.30;;;;;;;32.40;41.70;95055.06;5094489;28;20480;-84
2022/07/04 08:51:47;;;;;;;10.00;6.83;;;;;;;32.55;41.50;95058.66;5094973;28;20453;-82
2022/07/04 08:59:48;;;;;;;7.73;6.73;;;;;;;31.68;41.45;95050.91;5094580;28;20952;-82
2022/07/04 09:02:17;;;;;;;7.50;6.80;;;;;;;31.36;42.93;95053.56;5094517;28;20439;-85
2022/07/04 09:04:45;;;;;;;7.03;6.53;;;;;;;31.03;44.01;95046.41;5094785;28;20444;-82
2022/07/04 09:07:12;;;;;;;12.47;7.10;;;;;;;31.37;44.28;95053.31;5094289;28;20457;-82
2022/07/04 09:09:41;;;;;;;8.80;6.57;;;;;;;31.65;44.25;95051.41;5094088;28;20495;-83
2022/07/04 09:12:10;;;;;;;8.80;6.67;;;;;;;31.84;43.73;95058.13;5094428;28;20451;-83
2022/07/04 09:14:37;;;;;;;12.33;7.00;;;;;;;31.74;43.23;95053.41;5094313;28;20444;-83
2022/07/04 09:17:05;;;;;;;8.20;7.50;;;;;;;31.72;44.70;95057.47;5094423;28;20446;-83
2022/07/04 09:19:32;;;;;;;7.43;6.77;;;;;;;31.82;42.63;95056.75;5094556;28;20501;-83
2022/07/04 09:22:04;;;;;;;8.13;7.40;;;;;;;31.96;42.99;95061.47;5094502;28;20534;-83
2022/07/04 09:24:48;;;;;;;8.90;8.00;;;;;;;32.07;43.20;95039.81;5094308;28;20505;-84
2022/07/04 09:27:32;;;;;;;7.57;6.50;;;;;;;32.10;44.39;95051.03;5094096;28;20444;-82
2022/07/04 09:29:59;;;;;;;7.53;6.60;;;;;;;32.15;42.87;95045.63;5094319;28;20444;-81
2022/07/04 09:32:35;;;;;;;8.73;6.90;;;;;;;32.19;43.94;95048.63;5093865;28;21011;-84
2022/07/04 09:35:03;;;;;;;11.47;6.80;;;;;;;32.29;44.12;95046.00;5093999;28;20914;-81
2022/07/04 09:37:41;;;;;;;7.57;6.53;;;;;;;32.45;43.07;95044.22;5093954;28;20433;-83
2022/07/04 09:40:11;;;;;;;8.60;6.70;;;;;;;32.53;43.13;95038.25;5094087;28;20465;-83
2022/07/04 09:42:41;;;;;;;9.73;7.60;;;;;;;32.56;42.35;95026.88;5074677;28;20428;-80
2022/07/04 09:45:10;;;;;;;8.90;6.73;;;;;;;32.64;42.50;95026.34;5094157;28;20420;-84
2022/07/04 09:47:38;;;;;;;7.93;7.33;;;;;;;32.63;43.60;95025.53;5093591;28;20463;-84
2022/07/04 09:50:07;;;;;;;17.10;8.10;;;;;;;32.59;42.63;95016.28;5093650;28;20448;-84
2022/07/04 09:52:45;;;;;;;9.10;7.23;;;;;;;32.42;42.56;95023.81;5093542;28;20439;-83
2022/07/04 09:55:12;;;;;;;8.60;7.40;;;;;;;32.09;41.95;95030.34;5093499;28;20452;-85
2022/07/04 09:57:45;;;;;;;9.30;7.53;;;;;;;31.78;43.87;95014.91;5093722;28;20451;-81
2022/07/04 10:00:21;;;;;;;9.57;6.40;;;;;;;31.52;44.08;95022.00;5093770;28;20436;-81
2022/07/04 10:02:48;;;;;;;7.77;7.17;;;;;;;31.28;43.39;95021.50;5074647;28;20428;-84
2022/07/04 10:05:24;;;;;;;7.87;7.00;;;;;;;31.38;46.19;95018.88;5093396;28;20450;-84
2022/07/04 10:07:51;;;;;;;7.80;7.20;;;;;;;31.50;44.92;95021.41;5093282;28;20486;-84
2022/07/04 10:10:32;;;;;;;7.60;6.50;;;;;;;31.63;43.86;95018.28;5093597;28;20534;-83
2022/07/04 10:13:02;;;;;;;11.73;6.93;;;;;;;31.56;44.31;95015.81;5093576;28;20467;-81
2022/07/04 10:15:30;;;;;;;8.33;6.70;;;;;;;31.37;44.03;95015.34;5093192;28;20444;-80
2022/07/04 10:17:57;;;;;;;8.50;7.70;;;;;;;31.38;43.37;95014.28;5093326;28;20451;-81
2022/07/04 10:20:24;;;;;;;7.13;6.43;;;;;;;31.11;42.88;95013.41;5093406;28;20926;-80
2022/07/04 10:22:51;;;;;;;7.23;6.80;;;;;;;31.18;44.41;95014.06;5093149;28;20436;-80
2022/07/04 10:25:18;;;;;;;7.60;7.10;;;;;;;31.35;44.37;95008.53;5092883;28;20452;-82
2022/07/04 10:27:48;;;;;;;7.30;6.60;;;;;;;31.40;43.47;95019.44;5093126;28;20444;-85
2022/07/04 10:30:21;;;;;;;8.27;7.07;;;;;;;31.39;44.64;95021.34;5092942;28;20958;-83
2022/07/04 10:32:50;;;;;;;9.50;7.40;;;;;;;31.09;41.40;95012.84;5093334;28;20446;-84
2022/07/04 10:35:17;;;;;;;8.17;7.40;;;;;;;30.87;43.37;95015.59;5092770;28;20475;-82
2022/07/04 10:38:01;;;;;;;12.73;7.97;;;;;;;30.92;42.18;95006.69;5093468;28;20449;-83
2022/07/04 10:40:42;;;;;;;9.03;8.23;;;;;;;30.85;43.96;95006.06;5093133;28;20867;-84
2022/07/04 10:43:54;;;;;;;9.43;8.53;;;;;;;30.69;43.52;95005.09;5093220;28;20511;-85
2022/07/04 10:46:28;;;;;;;9.57;8.73;;;;;;;30.78;44.09;95007.09;5029915;28;20529;-84
2022/07/04 10:48:56;;;;;;;7.80;7.10;;;;;;;30.79;42.72;95003.31;5030168;28;21019;-83
2022/07/04 10:51:35;;;;;;;13.33;8.30;;;;;;;31.05;43.69;94999.00;5030354;28;20975;-84
2022/07/04 10:54:04;;;;;;;7.10;6.60;;;;;;;31.27;42.89;94998.16;5030057;28;20771;-83
2022/07/04 10:56:38;;;;;;;8.57;7.77;;;;;;;31.37;45.04;94988.22;4997289;28;20443;-83
2022/07/04 10:59:09;;;;;;;8.30;7.70;;;;;;;31.50;42.93;95002.44;5030034;28;20465;-84
2022/07/04 11:01:38;;;;;;;8.87;7.97;;;;;;;31.46;43.29;94985.03;5030053;28;20493;-84
2022/07/04 11:04:05;;;;;;;14.63;7.57;;;;;;;31.62;45.01;94982.19;5029966;28;20917;-83
2022/07/04 11:06:55;;;;;;;10.63;7.60;;;;;;;31.41;42.39;94989.34;5029796;28;20541;-83
2022/07/04 11:09:23;;;;;;;9.53;7.93;;;;;;;31.21;42.24;94988.31;4980324;28;20489;-84
2022/07/04 11:11:52;;;;;;;9.70;7.73;;;;;;;31.27;45.45;94982.72;5029821;28;20449;-84
2022/07/04 11:14:33;;;;;;;9.60;7.37;;;;;;;31.14;44.66;94983.06;5030206;28;20441;-83
2022/07/04 11:17:01;;;;;;;9.80;7.50;;;;;;;31.31;43.35;94975.69;5029760;28;20858;-83
2022/07/04 11:19:28;;;;;;;10.23;9.23;;;;;;;31.49;41.50;94973.66;5033219;28;20434;-84
2022/07/04 11:21:56;;;;;;;9.40;8.60;;;;;;;31.71;42.28;94980.66;5092116;28;20446;-84
2022/07/04 11:24:23;;;;;;;8.37;7.57;;;;;;;31.84;41.77;94974.00;5092246;28;20448;-84
2022/07/04 11:26:50;;;;;;;8.57;7.83;;;;;;;32.00;40.99;94975.72;5092249;28;20443;-83
2022/07/04 11:29:17;;;;;;;9.13;8.17;;;;;;;31.69;41.49;94980.06;5091768;28;20484;-84
2022/07/04 11:31:46;;;;;;;8.83;8.10;;;;;;;31.67;42.07;94973.28;5092191;28;20447;-84
2022/07/04 11:34:15;;;;;;;8.37;7.70;;;;;;;31.50;42.71;94970.69;5092202;28;20435;-83
2022/07/04 11:36:43;;;;;;;9.30;8.40;;;;;;;31.67;42.26;94967.84;5092335;28;20964;-83
2022/07/04 11:39:12;;;;;;;8.87;7.90;;;;;;;31.70;42.13;94970.88;5092648;28;20597;-82
2022/07/04 11:47:15;;;;;;;8.77;7.93;;;;;;;31.82;42.42;94962.59;5092044;28;20473;-83
2022/07/04 11:49:48;;;;;;;8.87;8.10;;;;;;;31.71;42.25;94960.84;5092343;28;20483;-84
2022/07/04 11:52:16;;;;;;;8.37;7.67;;;;;;;31.62;41.37;94954.25;5092026;28;20447;-82
2022/07/04 11:54:44;;;;;;;8.20;7.60;;;;;;;31.29;42.21;94960.75;5092419;28;20440;-81